sensor_id;sensor_type;location;lat;lon;timestamp;P1;durP1;ratioP1;P2;durP2;ratioP2
43996;SDS011;34318;45.818;15.964;2022-12-24T00:01:39;9.07;;;7.70;;
43996;SDS011;34318;45.818;15.964;2022-12-24T00:04:06;10.98;;;7.10;;
43996;SDS011;34318;45.818;15.964;2022-12-24T00:06:33;11.43;;;6.85;;
43996;SDS011;34318;45.818;15.964;2022-12-24T00:09:01;8.30;;;7.18;;
43996;SDS011;34318;45.818;15.964;2022-12-24T00:11:28;13.50;;;6.55;;
43996;SDS011;34318;45.818;15.964;2022-12-24T00:13:55;7.55;;;6.35;;
43996;SDS011;34318;45.818;15.964;2022-12-24T00:16:22;8.18;;;6.60;;
43996;SDS011;34318;45.818;15.964;2022-12-24T00:18:50;11.40;;;7.35;;
43996;SDS011;34318;45.818;15.964;2022-12-24T00:21:17;8.90;;;6.88;;
43996;SDS011;34318;45.818;15.964;2022-12-24T00:23:44;9.25;;;6.53;;
43996;SDS011;34318;45.818;15.964;2022-12-24T00:26:12;7.00;;;6.35;;
43996;SDS011;34318;45.818;15.964;2022-12-24T00:28:39;8.40;;;6.20;;
43996;SDS011;34318;45.818;15.964;2022-12-24T00:31:08;7.55;;;6.25;;
43996;SDS011;34318;45.818;15.964;2022-12-24T00:33:35;6.90;;;6.20;;
43996;SDS011;34318;45.818;15.964;2022-12-24T00:36:03;7.70;;;5.75;;
43996;SDS011;34318;45.818;15.964;2022-12-24T00:38:30;8.95;;;6.32;;
43996;SDS011;34318;45.818;15.964;2022-12-24T00:41:00;8.80;;;6.95;;
43996;SDS011;34318;45.818;15.964;2022-12-24T00:43:28;7.82;;;6.57;;
43996;SDS011;34318;45.818;15.964;2022-12-24T00:45:56;7.82;;;6.28;;
43996;SDS011;34318;45.818;15.964;2022-12-24T00:48:23;7.28;;;6.57;;
43996;SDS011;34318;45.818;15.964;2022-12-24T00:50:50;9.55;;;6.07;;
43996;SDS011;34318;45.818;15.964;2022-12-24T00:53:18;7.07;;;6.05;;
43996;SDS011;34318;45.818;15.964;2022-12-24T00:55:45;7.53;;;6.72;;
43996;SDS011;34318;45.818;15.964;2022-12-24T00:58:12;6.45;;;5.75;;
43996;SDS011;34318;45.818;15.964;2022-12-24T01:00:39;9.13;;;6.60;;
43996;SDS011;34318;45.818;15.964;2022-12-24T01:03:07;7.05;;;6.22;;
43996;SDS011;34318;45.818;15.964;2022-12-24T01:05:34;7.25;;;5.95;;
43996;SDS011;34318;45.818;15.964;2022-12-24T01:08:01;6.22;;;5.70;;
43996;SDS011;34318;45.818;15.964;2022-12-24T01:10:28;6.28;;;5.45;;
43996;SDS011;34318;45.818;15.964;2022-12-24T01:12:55;6.53;;;5.93;;
43996;SDS011;34318;45.818;15.964;2022-12-24T01:15:23;6.20;;;5.60;;
43996;SDS011;34318;45.818;15.964;2022-12-24T01:17:50;8.88;;;6.03;;
43996;SDS011;34318;45.818;15.964;2022-12-24T01:20:17;7.45;;;5.70;;
43996;SDS011;34318;45.818;15.964;2022-12-24T01:22:44;7.65;;;5.32;;
43996;SDS011;34318;45.818;15.964;2022-12-24T01:25:11;6.28;;;5.25;;
43996;SDS011;34318;45.818;15.964;2022-12-24T01:27:39;6.10;;;5.50;;
43996;SDS011;34318;45.818;15.964;2022-12-24T01:30:06;7.10;;;5.53;;
43996;SDS011;34318;45.818;15.964;2022-12-24T01:32:34;7.60;;;5.55;;
43996;SDS011;34318;45.818;15.964;2022-12-24T01:35:01;6.85;;;5.50;;
43996;SDS011;34318;45.818;15.964;2022-12-24T01:37:28;10.07;;;5.75;;
43996;SDS011;34318;45.818;15.964;2022-12-24T01:39:55;8.27;;;6.10;;
43996;SDS011;34318;45.818;15.964;2022-12-24T01:42:44;8.23;;;5.68;;
43996;SDS011;34318;45.818;15.964;2022-12-24T01:45:38;6.15;;;5.50;;
43996;SDS011;34318;45.818;15.964;2022-12-24T01:48:11;5.95;;;5.35;;
43996;SDS011;34318;45.818;15.964;2022-12-24T01:50:40;5.90;;;5.40;;
43996;SDS011;34318;45.818;15.964;2022-12-24T01:53:07;5.70;;;5.15;;
43996;SDS011;34318;45.818;15.964;2022-12-24T01:55:34;5.60;;;5.05;;
43996;SDS011;34318;45.818;15.964;2022-12-24T01:58:02;5.70;;;5.20;;
43996;SDS011;34318;45.818;15.964;2022-12-24T02:00:31;5.85;;;5.28;;
43996;SDS011;34318;45.818;15.964;2022-12-24T02:02:58;6.90;;;5.10;;
43996;SDS011;34318;45.818;15.964;2022-12-24T02:07:54;5.70;;;4.82;;
43996;SDS011;34318;45.818;15.964;2022-12-24T02:10:21;8.65;;;4.93;;
43996;SDS011;34318;45.818;15.964;2022-12-24T02:12:49;5.72;;;4.95;;
43996;SDS011;34318;45.818;15.964;2022-12-24T02:15:17;5.97;;;5.15;;
43996;SDS011;34318;45.818;15.964;2022-12-24T02:17:48;5.65;;;5.07;;
43996;SDS011;34318;45.818;15.964;2022-12-24T02:20:24;5.85;;;5.05;;
43996;SDS011;34318;45.818;15.964;2022-12-24T02:28:28;5.47;;;4.97;;
43996;SDS011;34318;45.818;15.964;2022-12-24T02:30:47;5.43;;;4.57;;
43996;SDS011;34318;45.818;15.964;2022-12-24T02:38:18;5.93;;;4.72;;
43996;SDS011;34318;45.818;15.964;2022-12-24T02:40:51;5.85;;;5.32;;
43996;SDS011;34318;45.818;15.964;2022-12-24T02:43:21;5.68;;;4.80;;
43996;SDS011;34318;45.818;15.964;2022-12-24T02:45:51;5.25;;;4.75;;
43996;SDS011;34318;45.818;15.964;2022-12-24T02:48:24;5.22;;;4.68;;
43996;SDS011;34318;45.818;15.964;2022-12-24T02:50:57;5.65;;;4.70;;
43996;SDS011;34318;45.818;15.964;2022-12-24T02:53:27;5.32;;;4.05;;
43996;SDS011;34318;45.818;15.964;2022-12-24T03:06:34;6.95;;;4.82;;
43996;SDS011;34318;45.818;15.964;2022-12-24T03:09:24;5.05;;;4.55;;
43996;SDS011;34318;45.818;15.964;2022-12-24T03:12:12;7.15;;;4.43;;
43996;SDS011;34318;45.818;15.964;2022-12-24T03:14:42;5.65;;;4.90;;
43996;SDS011;34318;45.818;15.964;2022-12-24T03:17:10;5.07;;;4.53;;
43996;SDS011;34318;45.818;15.964;2022-12-24T03:19:37;5.97;;;4.43;;
43996;SDS011;34318;45.818;15.964;2022-12-24T03:22:06;4.85;;;4.32;;
43996;SDS011;34318;45.818;15.964;2022-12-24T03:24:34;9.52;;;4.75;;
43996;SDS011;34318;45.818;15.964;2022-12-24T03:27:03;5.22;;;4.28;;
43996;SDS011;34318;45.818;15.964;2022-12-24T03:29:31;4.45;;;4.05;;
43996;SDS011;34318;45.818;15.964;2022-12-24T03:31:59;5.65;;;4.68;;
43996;SDS011;34318;45.818;15.964;2022-12-24T03:34:27;5.20;;;3.88;;
43996;SDS011;34318;45.818;15.964;2022-12-24T03:36:54;4.63;;;4.20;;
43996;SDS011;34318;45.818;15.964;2022-12-24T03:39:22;7.95;;;4.22;;
43996;SDS011;34318;45.818;15.964;2022-12-24T03:41:49;4.75;;;4.30;;
43996;SDS011;34318;45.818;15.964;2022-12-24T03:44:16;6.43;;;4.10;;
43996;SDS011;34318;45.818;15.964;2022-12-24T03:46:43;4.70;;;4.25;;
43996;SDS011;34318;45.818;15.964;2022-12-24T03:49:10;6.25;;;4.10;;
43996;SDS011;34318;45.818;15.964;2022-12-24T03:51:37;4.43;;;3.67;;
43996;SDS011;34318;45.818;15.964;2022-12-24T03:54:05;5.38;;;4.05;;
43996;SDS011;34318;45.818;15.964;2022-12-24T03:56:32;5.03;;;4.10;;
43996;SDS011;34318;45.818;15.964;2022-12-24T03:58:59;6.00;;;4.10;;
43996;SDS011;34318;45.818;15.964;2022-12-24T04:01:26;5.43;;;3.75;;
43996;SDS011;34318;45.818;15.964;2022-12-24T04:03:54;4.80;;;4.05;;
43996;SDS011;34318;45.818;15.964;2022-12-24T04:06:21;5.47;;;4.40;;
43996;SDS011;34318;45.818;15.964;2022-12-24T04:08:48;4.60;;;4.20;;
43996;SDS011;34318;45.818;15.964;2022-12-24T04:11:16;6.45;;;4.28;;
43996;SDS011;34318;45.818;15.964;2022-12-24T04:13:43;4.57;;;3.97;;
43996;SDS011;34318;45.818;15.964;2022-12-24T04:16:12;4.57;;;4.18;;
43996;SDS011;34318;45.818;15.964;2022-12-24T04:18:40;4.57;;;3.65;;
43996;SDS011;34318;45.818;15.964;2022-12-24T04:21:07;4.20;;;3.83;;
43996;SDS011;34318;45.818;15.964;2022-12-24T04:23:35;4.85;;;3.72;;
43996;SDS011;34318;45.818;15.964;2022-12-24T04:26:03;5.25;;;4.20;;
43996;SDS011;34318;45.818;15.964;2022-12-24T04:28:31;4.53;;;4.07;;
43996;SDS011;34318;45.818;15.964;2022-12-24T04:30:59;5.38;;;4.53;;
43996;SDS011;34318;45.818;15.964;2022-12-24T04:33:27;4.25;;;3.72;;
43996;SDS011;34318;45.818;15.964;2022-12-24T04:35:57;3.80;;;3.50;;
43996;SDS011;34318;45.818;15.964;2022-12-24T04:38:25;4.45;;;3.60;;
43996;SDS011;34318;45.818;15.964;2022-12-24T04:41:03;4.03;;;3.63;;
43996;SDS011;34318;45.818;15.964;2022-12-24T04:43:30;3.90;;;3.50;;
43996;SDS011;34318;45.818;15.964;2022-12-24T04:46:05;4.10;;;3.70;;
43996;SDS011;34318;45.818;15.964;2022-12-24T04:48:32;3.88;;;3.47;;
43996;SDS011;34318;45.818;15.964;2022-12-24T04:51:00;4.22;;;3.83;;
43996;SDS011;34318;45.818;15.964;2022-12-24T04:53:28;7.65;;;4.53;;
43996;SDS011;34318;45.818;15.964;2022-12-24T04:55:56;4.18;;;3.72;;
43996;SDS011;34318;45.818;15.964;2022-12-24T04:58:23;4.05;;;3.60;;
43996;SDS011;34318;45.818;15.964;2022-12-24T05:00:51;8.15;;;3.50;;
43996;SDS011;34318;45.818;15.964;2022-12-24T05:03:18;4.95;;;3.50;;
43996;SDS011;34318;45.818;15.964;2022-12-24T05:05:46;3.83;;;3.53;;
43996;SDS011;34318;45.818;15.964;2022-12-24T05:08:13;4.10;;;3.70;;
43996;SDS011;34318;45.818;15.964;2022-12-24T05:10:40;3.90;;;3.50;;
43996;SDS011;34318;45.818;15.964;2022-12-24T05:13:07;3.72;;;3.30;;
43996;SDS011;34318;45.818;15.964;2022-12-24T05:15:34;4.85;;;3.78;;
43996;SDS011;34318;45.818;15.964;2022-12-24T05:18:02;5.13;;;3.58;;
43996;SDS011;34318;45.818;15.964;2022-12-24T05:20:29;5.25;;;3.50;;
43996;SDS011;34318;45.818;15.964;2022-12-24T05:22:56;3.60;;;3.30;;
43996;SDS011;34318;45.818;15.964;2022-12-24T05:25:42;3.25;;;2.97;;
43996;SDS011;34318;45.818;15.964;2022-12-24T05:28:28;3.50;;;3.20;;
43996;SDS011;34318;45.818;15.964;2022-12-24T05:30:55;4.47;;;3.40;;
43996;SDS011;34318;45.818;15.964;2022-12-24T05:33:22;6.22;;;3.50;;
43996;SDS011;34318;45.818;15.964;2022-12-24T05:35:50;3.55;;;3.25;;
43996;SDS011;34318;45.818;15.964;2022-12-24T05:38:18;3.75;;;3.30;;
43996;SDS011;34318;45.818;15.964;2022-12-24T05:40:45;3.58;;;3.28;;
43996;SDS011;34318;45.818;15.964;2022-12-24T05:43:13;3.75;;;3.45;;
43996;SDS011;34318;45.818;15.964;2022-12-24T05:45:40;3.75;;;3.45;;
43996;SDS011;34318;45.818;15.964;2022-12-24T05:48:07;3.83;;;3.47;;
43996;SDS011;34318;45.818;15.964;2022-12-24T05:50:35;3.63;;;3.33;;
43996;SDS011;34318;45.818;15.964;2022-12-24T05:53:03;3.58;;;3.28;;
43996;SDS011;34318;45.818;15.964;2022-12-24T05:55:30;4.57;;;3.83;;
43996;SDS011;34318;45.818;15.964;2022-12-24T05:57:57;3.20;;;2.90;;
43996;SDS011;34318;45.818;15.964;2022-12-24T06:00:24;4.65;;;3.45;;
43996;SDS011;34318;45.818;15.964;2022-12-24T06:02:51;3.55;;;3.25;;
43996;SDS011;34318;45.818;15.964;2022-12-24T06:05:19;3.92;;;3.40;;
43996;SDS011;34318;45.818;15.964;2022-12-24T06:07:46;3.53;;;3.22;;
43996;SDS011;34318;45.818;15.964;2022-12-24T06:10:13;3.53;;;2.97;;
43996;SDS011;34318;45.818;15.964;2022-12-24T06:12:40;4.05;;;3.45;;
43996;SDS011;34318;45.818;15.964;2022-12-24T06:15:07;4.45;;;3.55;;
43996;SDS011;34318;45.818;15.964;2022-12-24T06:17:35;4.75;;;3.50;;
43996;SDS011;34318;45.818;15.964;2022-12-24T06:20:02;3.58;;;3.17;;
43996;SDS011;34318;45.818;15.964;2022-12-24T06:22:29;3.97;;;3.60;;
43996;SDS011;34318;45.818;15.964;2022-12-24T06:24:56;3.50;;;3.20;;
43996;SDS011;34318;45.818;15.964;2022-12-24T06:27:24;3.60;;;3.30;;
43996;SDS011;34318;45.818;15.964;2022-12-24T06:29:51;4.78;;;3.30;;
43996;SDS011;34318;45.818;15.964;2022-12-24T06:32:19;3.40;;;3.10;;
43996;SDS011;34318;45.818;15.964;2022-12-24T06:34:46;4.22;;;3.50;;
43996;SDS011;34318;45.818;15.964;2022-12-24T06:37:13;5.20;;;3.28;;
43996;SDS011;34318;45.818;15.964;2022-12-24T06:39:44;5.10;;;3.40;;
43996;SDS011;34318;45.818;15.964;2022-12-24T06:42:12;3.28;;;2.97;;
43996;SDS011;34318;45.818;15.964;2022-12-24T06:44:39;3.17;;;2.97;;
43996;SDS011;34318;45.818;15.964;2022-12-24T06:47:06;3.10;;;2.80;;
43996;SDS011;34318;45.818;15.964;2022-12-24T06:49:34;3.17;;;2.97;;
43996;SDS011;34318;45.818;15.964;2022-12-24T06:52:01;3.30;;;3.00;;
43996;SDS011;34318;45.818;15.964;2022-12-24T06:54:28;3.58;;;3.00;;
43996;SDS011;34318;45.818;15.964;2022-12-24T06:56:55;4.45;;;3.75;;
43996;SDS011;34318;45.818;15.964;2022-12-24T06:59:23;3.22;;;2.90;;
43996;SDS011;34318;45.818;15.964;2022-12-24T07:01:50;3.92;;;3.10;;
43996;SDS011;34318;45.818;15.964;2022-12-24T07:04:18;7.55;;;3.50;;
43996;SDS011;34318;45.818;15.964;2022-12-24T07:06:46;6.70;;;3.30;;
43996;SDS011;34318;45.818;15.964;2022-12-24T07:09:13;5.53;;;3.40;;
43996;SDS011;34318;45.818;15.964;2022-12-24T07:11:40;4.45;;;3.42;;
43996;SDS011;34318;45.818;15.964;2022-12-24T07:14:07;4.20;;;3.80;;
43996;SDS011;34318;45.818;15.964;2022-12-24T07:16:35;5.82;;;3.50;;
43996;SDS011;34318;45.818;15.964;2022-12-24T07:19:02;4.93;;;3.55;;
43996;SDS011;34318;45.818;15.964;2022-12-24T07:21:29;10.55;;;4.03;;
43996;SDS011;34318;45.818;15.964;2022-12-24T07:23:57;7.55;;;3.97;;
43996;SDS011;34318;45.818;15.964;2022-12-24T07:26:24;11.20;;;4.88;;
43996;SDS011;34318;45.818;15.964;2022-12-24T07:28:51;6.95;;;4.57;;
43996;SDS011;34318;45.818;15.964;2022-12-24T07:31:18;7.95;;;4.05;;
43996;SDS011;34318;45.818;15.964;2022-12-24T07:33:46;11.68;;;6.53;;
43996;SDS011;34318;45.818;15.964;2022-12-24T07:36:19;12.43;;;5.80;;
43996;SDS011;34318;45.818;15.964;2022-12-24T07:38:47;18.13;;;8.25;;
43996;SDS011;34318;45.818;15.964;2022-12-24T07:41:14;14.95;;;8.05;;
43996;SDS011;34318;45.818;15.964;2022-12-24T07:43:42;16.38;;;7.45;;
43996;SDS011;34318;45.818;15.964;2022-12-24T07:46:09;15.90;;;7.65;;
43996;SDS011;34318;45.818;15.964;2022-12-24T07:48:36;15.35;;;8.40;;
43996;SDS011;34318;45.818;15.964;2022-12-24T07:51:04;17.60;;;8.02;;
43996;SDS011;34318;45.818;15.964;2022-12-24T07:53:31;15.10;;;8.45;;
43996;SDS011;34318;45.818;15.964;2022-12-24T07:55:58;13.07;;;7.55;;
43996;SDS011;34318;45.818;15.964;2022-12-24T07:58:26;19.10;;;8.35;;
43996;SDS011;34318;45.818;15.964;2022-12-24T08:00:56;15.32;;;9.02;;
43996;SDS011;34318;45.818;15.964;2022-12-24T08:03:24;10.80;;;8.40;;
43996;SDS011;34318;45.818;15.964;2022-12-24T08:05:51;12.68;;;7.95;;
43996;SDS011;34318;45.818;15.964;2022-12-24T08:08:19;12.38;;;8.25;;
43996;SDS011;34318;45.818;15.964;2022-12-24T08:10:46;13.77;;;7.65;;
43996;SDS011;34318;45.818;15.964;2022-12-24T08:13:13;13.98;;;8.23;;
43996;SDS011;34318;45.818;15.964;2022-12-24T08:15:41;10.60;;;6.78;;
43996;SDS011;34318;45.818;15.964;2022-12-24T08:18:08;12.35;;;8.00;;
43996;SDS011;34318;45.818;15.964;2022-12-24T08:20:37;11.40;;;9.02;;
43996;SDS011;34318;45.818;15.964;2022-12-24T08:23:05;11.65;;;7.20;;
43996;SDS011;34318;45.818;15.964;2022-12-24T08:25:33;12.18;;;8.05;;
43996;SDS011;34318;45.818;15.964;2022-12-24T08:28:00;11.77;;;9.10;;
43996;SDS011;34318;45.818;15.964;2022-12-24T08:30:27;10.85;;;9.13;;
43996;SDS011;34318;45.818;15.964;2022-12-24T08:32:55;13.88;;;8.57;;
43996;SDS011;34318;45.818;15.964;2022-12-24T08:35:22;11.93;;;8.40;;
43996;SDS011;34318;45.818;15.964;2022-12-24T08:37:49;11.68;;;8.25;;
43996;SDS011;34318;45.818;15.964;2022-12-24T08:40:19;9.07;;;7.63;;
43996;SDS011;34318;45.818;15.964;2022-12-24T08:42:46;10.55;;;7.47;;
43996;SDS011;34318;45.818;15.964;2022-12-24T08:45:14;10.63;;;7.05;;
43996;SDS011;34318;45.818;15.964;2022-12-24T08:47:41;13.20;;;7.55;;
43996;SDS011;34318;45.818;15.964;2022-12-24T08:50:08;10.18;;;6.32;;
43996;SDS011;34318;45.818;15.964;2022-12-24T08:52:35;7.93;;;5.97;;
43996;SDS011;34318;45.818;15.964;2022-12-24T08:55:03;7.93;;;5.47;;
43996;SDS011;34318;45.818;15.964;2022-12-24T08:57:30;8.25;;;5.80;;
43996;SDS011;34318;45.818;15.964;2022-12-24T08:59:57;9.23;;;5.68;;
43996;SDS011;34318;45.818;15.964;2022-12-24T09:02:24;8.10;;;5.70;;
43996;SDS011;34318;45.818;15.964;2022-12-24T09:04:52;10.52;;;5.78;;
43996;SDS011;34318;45.818;15.964;2022-12-24T09:07:19;12.23;;;5.57;;
43996;SDS011;34318;45.818;15.964;2022-12-24T09:09:46;9.50;;;4.95;;
43996;SDS011;34318;45.818;15.964;2022-12-24T09:12:13;6.25;;;4.68;;
43996;SDS011;34318;45.818;15.964;2022-12-24T09:14:41;7.60;;;4.60;;
43996;SDS011;34318;45.818;15.964;2022-12-24T09:17:08;6.85;;;4.43;;
43996;SDS011;34318;45.818;15.964;2022-12-24T09:19:35;6.25;;;5.03;;
43996;SDS011;34318;45.818;15.964;2022-12-24T09:22:03;5.90;;;3.97;;
43996;SDS011;34318;45.818;15.964;2022-12-24T09:24:30;6.93;;;4.72;;
43996;SDS011;34318;45.818;15.964;2022-12-24T09:26:58;4.97;;;4.00;;
43996;SDS011;34318;45.818;15.964;2022-12-24T09:29:27;7.05;;;4.53;;
43996;SDS011;34318;45.818;15.964;2022-12-24T09:31:54;5.45;;;4.15;;
43996;SDS011;34318;45.818;15.964;2022-12-24T09:34:23;7.10;;;4.95;;
43996;SDS011;34318;45.818;15.964;2022-12-24T09:36:56;4.78;;;4.20;;
43996;SDS011;34318;45.818;15.964;2022-12-24T09:39:23;7.38;;;5.20;;
43996;SDS011;34318;45.818;15.964;2022-12-24T09:46:56;10.13;;;7.40;;
43996;SDS011;34318;45.818;15.964;2022-12-24T09:49:36;9.43;;;7.43;;
43996;SDS011;34318;45.818;15.964;2022-12-24T09:52:05;7.03;;;6.30;;
43996;SDS011;34318;45.818;15.964;2022-12-24T09:54:34;8.75;;;6.60;;
43996;SDS011;34318;45.818;15.964;2022-12-24T09:57:10;11.05;;;7.15;;
43996;SDS011;34318;45.818;15.964;2022-12-24T09:59:42;9.90;;;6.80;;
43996;SDS011;34318;45.818;15.964;2022-12-24T10:02:10;8.43;;;6.00;;
43996;SDS011;34318;45.818;15.964;2022-12-24T10:04:38;10.95;;;7.28;;
43996;SDS011;34318;45.818;15.964;2022-12-24T10:12:25;8.23;;;6.03;;
43996;SDS011;34318;45.818;15.964;2022-12-24T10:22:51;7.28;;;6.13;;
43996;SDS011;34318;45.818;15.964;2022-12-24T10:25:24;15.18;;;5.90;;
43996;SDS011;34318;45.818;15.964;2022-12-24T10:27:53;11.25;;;6.43;;
43996;SDS011;34318;45.818;15.964;2022-12-24T10:30:23;8.40;;;5.53;;
43996;SDS011;34318;45.818;15.964;2022-12-24T10:32:51;9.15;;;5.68;;
43996;SDS011;34318;45.818;15.964;2022-12-24T10:35:20;14.70;;;6.70;;
43996;SDS011;34318;45.818;15.964;2022-12-24T10:37:49;8.10;;;5.60;;
43996;SDS011;34318;45.818;15.964;2022-12-24T10:42:45;8.60;;;5.78;;
43996;SDS011;34318;45.818;15.964;2022-12-24T10:45:17;6.65;;;5.13;;
43996;SDS011;34318;45.818;15.964;2022-12-24T10:47:47;13.15;;;5.47;;
43996;SDS011;34318;45.818;15.964;2022-12-24T10:50:17;11.50;;;6.57;;
43996;SDS011;34318;45.818;15.964;2022-12-24T10:52:44;6.43;;;5.40;;
43996;SDS011;34318;45.818;15.964;2022-12-24T10:57:44;9.68;;;6.00;;
43996;SDS011;34318;45.818;15.964;2022-12-24T11:00:29;14.30;;;5.40;;
43996;SDS011;34318;45.818;15.964;2022-12-24T11:05:38;9.68;;;5.85;;
43996;SDS011;34318;45.818;15.964;2022-12-24T11:08:15;8.57;;;5.53;;
43996;SDS011;34318;45.818;15.964;2022-12-24T11:10:44;8.95;;;5.40;;
43996;SDS011;34318;45.818;15.964;2022-12-24T11:13:42;7.07;;;5.07;;
43996;SDS011;34318;45.818;15.964;2022-12-24T11:16:09;6.38;;;5.72;;
43996;SDS011;34318;45.818;15.964;2022-12-24T11:18:44;9.25;;;5.95;;
43996;SDS011;34318;45.818;15.964;2022-12-24T11:21:20;8.10;;;5.03;;
43996;SDS011;34318;45.818;15.964;2022-12-24T11:23:49;15.40;;;7.05;;
43996;SDS011;34318;45.818;15.964;2022-12-24T11:26:20;7.63;;;5.60;;
43996;SDS011;34318;45.818;15.964;2022-12-24T11:29:02;12.57;;;5.82;;
43996;SDS011;34318;45.818;15.964;2022-12-24T11:31:30;7.45;;;5.40;;
43996;SDS011;34318;45.818;15.964;2022-12-24T11:34:02;8.07;;;5.68;;
43996;SDS011;34318;45.818;15.964;2022-12-24T11:36:42;11.07;;;4.72;;
43996;SDS011;34318;45.818;15.964;2022-12-24T11:39:16;7.15;;;5.05;;
43996;SDS011;34318;45.818;15.964;2022-12-24T11:41:45;9.98;;;5.82;;
43996;SDS011;34318;45.818;15.964;2022-12-24T11:44:12;15.13;;;10.18;;
43996;SDS011;34318;45.818;15.964;2022-12-24T11:46:40;18.75;;;16.95;;
43996;SDS011;34318;45.818;15.964;2022-12-24T11:54:37;27.43;;;25.03;;
43996;SDS011;34318;45.818;15.964;2022-12-24T11:57:06;27.95;;;25.45;;
43996;SDS011;34318;45.818;15.964;2022-12-24T11:59:45;32.10;;;28.90;;
43996;SDS011;34318;45.818;15.964;2022-12-24T12:02:27;28.55;;;25.95;;
43996;SDS011;34318;45.818;15.964;2022-12-24T12:05:06;31.02;;;27.05;;
43996;SDS011;34318;45.818;15.964;2022-12-24T12:07:35;27.20;;;24.83;;
43996;SDS011;34318;45.818;15.964;2022-12-24T12:12:32;29.02;;;26.15;;
43996;SDS011;34318;45.818;15.964;2022-12-24T12:15:05;26.90;;;24.05;;
43996;SDS011;34318;45.818;15.964;2022-12-24T12:25:46;26.80;;;22.95;;
43996;SDS011;34318;45.818;15.964;2022-12-24T12:28:17;20.15;;;18.23;;
43996;SDS011;34318;45.818;15.964;2022-12-24T12:30:47;20.33;;;18.27;;
43996;SDS011;34318;45.818;15.964;2022-12-24T12:33:31;18.58;;;16.88;;
43996;SDS011;34318;45.818;15.964;2022-12-24T12:35:59;19.08;;;16.73;;
43996;SDS011;34318;45.818;15.964;2022-12-24T12:38:27;19.70;;;17.55;;
43996;SDS011;34318;45.818;15.964;2022-12-24T12:46:11;24.38;;;17.35;;
43996;SDS011;34318;45.818;15.964;2022-12-24T12:48:52;23.60;;;15.90;;
43996;SDS011;34318;45.818;15.964;2022-12-24T12:54:07;23.70;;;14.90;;
43996;SDS011;34318;45.818;15.964;2022-12-24T12:56:38;16.52;;;14.73;;
43996;SDS011;34318;45.818;15.964;2022-12-24T13:04:52;17.60;;;13.35;;
43996;SDS011;34318;45.818;15.964;2022-12-24T13:20:23;14.40;;;11.30;;
43996;SDS011;34318;45.818;15.964;2022-12-24T13:25:25;15.00;;;11.10;;
43996;SDS011;34318;45.818;15.964;2022-12-24T13:27:53;13.55;;;10.15;;
43996;SDS011;34318;45.818;15.964;2022-12-24T13:30:36;12.35;;;11.02;;
43996;SDS011;34318;45.818;15.964;2022-12-24T13:33:06;18.20;;;11.30;;
43996;SDS011;34318;45.818;15.964;2022-12-24T13:35:35;14.23;;;10.35;;
43996;SDS011;34318;45.818;15.964;2022-12-24T13:40:50;33.88;;;28.45;;
43996;SDS011;34318;45.818;15.964;2022-12-24T13:43:17;31.30;;;25.27;;
43996;SDS011;34318;45.818;15.964;2022-12-24T13:45:45;23.98;;;20.35;;
43996;SDS011;34318;45.818;15.964;2022-12-24T13:48:29;30.35;;;20.30;;
43996;SDS011;34318;45.818;15.964;2022-12-24T13:50:57;25.98;;;18.23;;
43996;SDS011;34318;45.818;15.964;2022-12-24T13:53:31;25.33;;;19.67;;
43996;SDS011;34318;45.818;15.964;2022-12-24T13:56:05;22.17;;;18.27;;
43996;SDS011;34318;45.818;15.964;2022-12-24T13:58:34;20.08;;;16.50;;
43996;SDS011;34318;45.818;15.964;2022-12-24T14:01:03;33.03;;;16.42;;
43996;SDS011;34318;45.818;15.964;2022-12-24T14:03:41;32.22;;;16.83;;
43996;SDS011;34318;45.818;15.964;2022-12-24T14:06:29;37.92;;;16.63;;
43996;SDS011;34318;45.818;15.964;2022-12-24T14:09:11;33.28;;;15.75;;
43996;SDS011;34318;45.818;15.964;2022-12-24T14:14:30;23.15;;;11.98;;
43996;SDS011;34318;45.818;15.964;2022-12-24T14:16:58;20.73;;;11.32;;
43996;SDS011;34318;45.818;15.964;2022-12-24T14:19:28;28.52;;;12.82;;
43996;SDS011;34318;45.818;15.964;2022-12-24T14:22:45;28.35;;;12.20;;
43996;SDS011;34318;45.818;15.964;2022-12-24T14:25:03;30.15;;;12.35;;
43996;SDS011;34318;45.818;15.964;2022-12-24T14:30:07;23.35;;;11.55;;
43996;SDS011;34318;45.818;15.964;2022-12-24T14:32:42;25.85;;;10.75;;
43996;SDS011;34318;45.818;15.964;2022-12-24T14:37:40;23.08;;;10.95;;
43996;SDS011;34318;45.818;15.964;2022-12-24T14:40:12;18.33;;;9.43;;
43996;SDS011;34318;45.818;15.964;2022-12-24T14:42:44;22.23;;;9.95;;
43996;SDS011;34318;45.818;15.964;2022-12-24T14:52:51;22.95;;;10.43;;
43996;SDS011;34318;45.818;15.964;2022-12-24T14:58:20;29.08;;;10.32;;
43996;SDS011;34318;45.818;15.964;2022-12-24T15:00:49;19.30;;;9.63;;
43996;SDS011;34318;45.818;15.964;2022-12-24T15:03:17;23.92;;;9.40;;
43996;SDS011;34318;45.818;15.964;2022-12-24T15:05:45;16.00;;;8.73;;
43996;SDS011;34318;45.818;15.964;2022-12-24T15:08:17;15.38;;;8.98;;
43996;SDS011;34318;45.818;15.964;2022-12-24T15:10:49;18.80;;;9.27;;
43996;SDS011;34318;45.818;15.964;2022-12-24T15:15:47;21.58;;;9.45;;
43996;SDS011;34318;45.818;15.964;2022-12-24T15:18:19;20.70;;;9.25;;
43996;SDS011;34318;45.818;15.964;2022-12-24T15:20:49;22.00;;;9.18;;
43996;SDS011;34318;45.818;15.964;2022-12-24T15:23:18;18.58;;;8.90;;
43996;SDS011;34318;45.818;15.964;2022-12-24T15:25:45;20.50;;;9.63;;
43996;SDS011;34318;45.818;15.964;2022-12-24T15:28:16;17.63;;;8.95;;
43996;SDS011;34318;45.818;15.964;2022-12-24T15:30:44;20.85;;;9.00;;
43996;SDS011;34318;45.818;15.964;2022-12-24T15:33:12;25.70;;;9.25;;
43996;SDS011;34318;45.818;15.964;2022-12-24T15:35:47;15.75;;;8.70;;
43996;SDS011;34318;45.818;15.964;2022-12-24T15:40:47;13.25;;;8.07;;
43996;SDS011;34318;45.818;15.964;2022-12-24T15:43:14;13.40;;;7.93;;
43996;SDS011;34318;45.818;15.964;2022-12-24T15:45:42;31.13;;;9.48;;
43996;SDS011;34318;45.818;15.964;2022-12-24T15:48:11;20.58;;;7.63;;
43996;SDS011;34318;45.818;15.964;2022-12-24T15:50:43;16.95;;;7.78;;
43996;SDS011;34318;45.818;15.964;2022-12-24T15:53:15;18.08;;;8.23;;
43996;SDS011;34318;45.818;15.964;2022-12-24T15:56:04;12.90;;;7.75;;
43996;SDS011;34318;45.818;15.964;2022-12-24T16:03:32;15.50;;;7.88;;
43996;SDS011;34318;45.818;15.964;2022-12-24T16:06:00;12.88;;;7.57;;
43996;SDS011;34318;45.818;15.964;2022-12-24T16:08:29;13.48;;;8.00;;
43996;SDS011;34318;45.818;15.964;2022-12-24T16:13:40;14.60;;;7.32;;
43996;SDS011;34318;45.818;15.964;2022-12-24T16:16:10;13.03;;;7.67;;
43996;SDS011;34318;45.818;15.964;2022-12-24T16:18:39;15.70;;;7.68;;
43996;SDS011;34318;45.818;15.964;2022-12-24T16:21:08;21.67;;;8.38;;
43996;SDS011;34318;45.818;15.964;2022-12-24T16:23:36;13.85;;;8.23;;
43996;SDS011;34318;45.818;15.964;2022-12-24T16:26:04;13.07;;;8.63;;
43996;SDS011;34318;45.818;15.964;2022-12-24T16:28:31;27.85;;;14.73;;
43996;SDS011;34318;45.818;15.964;2022-12-24T16:30:59;30.13;;;15.57;;
43996;SDS011;34318;45.818;15.964;2022-12-24T16:33:26;37.13;;;19.42;;
43996;SDS011;34318;45.818;15.964;2022-12-24T16:35:54;61.28;;;26.55;;
43996;SDS011;34318;45.818;15.964;2022-12-24T16:38:21;59.25;;;27.90;;
43996;SDS011;34318;45.818;15.964;2022-12-24T16:40:49;64.68;;;31.77;;
43996;SDS011;34318;45.818;15.964;2022-12-24T16:43:16;30.40;;;19.15;;
43996;SDS011;34318;45.818;15.964;2022-12-24T16:46:03;17.00;;;13.75;;
43996;SDS011;34318;45.818;15.964;2022-12-24T16:48:31;16.95;;;13.20;;